createdAt,value
2018-12-31T00:02:56.452Z,102521.52
2018-12-31T00:08:00.540Z,102536.16
2018-12-31T00:13:04.535Z,102524.33
2018-12-31T00:18:09.096Z,102509.66
2018-12-31T00:23:13.479Z,102526.93
2018-12-31T00:28:18.391Z,102538.93
2018-12-31T00:33:22.696Z,102553.24
2018-12-31T00:38:26.770Z,102549.47
2018-12-31T00:43:30.883Z,102552.36
2018-12-31T00:48:35.169Z,102544.00
2018-12-31T00:53:39.474Z,102545.97
2018-12-31T00:58:43.582Z,102547.31
2018-12-31T01:03:47.578Z,102546.39
2018-12-31T01:08:52.200Z,102546.40
2018-12-31T01:13:56.263Z,102548.19
2018-12-31T01:19:00.307Z,102541.67
2018-12-31T01:24:04.338Z,102554.66
2018-12-31T01:29:08.643Z,102548.83
2018-12-31T01:34:12.694Z,102555.29
2018-12-31T01:39:16.749Z,102574.34
2018-12-31T01:44:20.786Z,102576.30
2018-12-31T01:49:24.910Z,102593.56
2018-12-31T01:54:29.045Z,102583.55
2018-12-31T01:59:33.056Z,102583.48
2018-12-31T02:04:37.147Z,102606.44
2018-12-31T02:09:41.475Z,102596.94
2018-12-31T02:14:45.795Z,102598.63
2018-12-31T02:19:49.890Z,102605.73
2018-12-31T02:24:53.952Z,102594.29
2018-12-31T02:29:59.274Z,102598.89
2018-12-31T02:35:03.338Z,102604.94
2018-12-31T02:40:07.463Z,102604.41
2018-12-31T02:45:12.088Z,102603.31
2018-12-31T02:50:16.139Z,102596.23
2018-12-31T02:55:20.179Z,102592.48
2018-12-31T03:00:24.221Z,102596.28
2018-12-31T03:05:28.288Z,102596.22
2018-12-31T03:10:32.636Z,102595.80
2018-12-31T03:15:36.647Z,102591.37
2018-12-31T03:20:40.731Z,102589.05
2018-12-31T03:25:45.324Z,102597.06
2018-12-31T03:30:49.417Z,102595.72
2018-12-31T03:35:53.447Z,102597.28
2018-12-31T03:40:58.056Z,102595.56
2018-12-31T03:46:02.391Z,102601.95
2018-12-31T03:51:09.603Z,102597.21
2018-12-31T03:56:13.827Z,102603.27
2018-12-31T04:01:18.560Z,102593.44
2018-12-31T04:06:23.191Z,102593.29
2018-12-31T04:11:28.072Z,102594.47
2018-12-31T04:16:32.117Z,102596.78
2018-12-31T04:21:36.813Z,102589.52
2018-12-31T04:26:41.510Z,102603.80
2018-12-31T04:31:46.341Z,102596.63
2018-12-31T04:36:51.267Z,102599.64
2018-12-31T04:41:55.747Z,102592.87
2018-12-31T04:47:01.102Z,102605.16
2018-12-31T04:52:05.281Z,102606.48
2018-12-31T04:57:10.183Z,102604.09
2018-12-31T05:02:15.008Z,102607.32
2018-12-31T05:07:19.330Z,102608.40
2018-12-31T05:12:23.551Z,102598.52
2018-12-31T05:17:27.916Z,102585.69
2018-12-31T05:22:31.963Z,102583.03
2018-12-31T05:27:36.017Z,102599.87
2018-12-31T05:32:40.156Z,102609.63
2018-12-31T05:37:44.215Z,102637.38
2018-12-31T05:42:48.554Z,102657.02
2018-12-31T05:47:52.613Z,102635.48
2018-12-31T05:52:56.635Z,102642.05
2018-12-31T05:58:00.667Z,102641.50
2018-12-31T06:03:05.065Z,102642.94
2018-12-31T06:08:10.090Z,102634.98
2018-12-31T06:13:14.181Z,102633.16
2018-12-31T06:18:18.318Z,102631.61
2018-12-31T06:23:22.429Z,102652.94
2018-12-31T06:28:26.550Z,102649.70
2018-12-31T06:33:30.946Z,102654.19
2018-12-31T06:38:35.123Z,102659.89
2018-12-31T06:43:39.177Z,102663.69
2018-12-31T06:48:43.245Z,102663.30
2018-12-31T06:53:47.559Z,102648.09
2018-12-31T06:58:51.612Z,102649.63
2018-12-31T07:03:55.951Z,102646.72
2018-12-31T07:09:00.033Z,102644.86
2018-12-31T07:14:07.707Z,102652.64
2018-12-31T07:19:11.792Z,102653.42
2018-12-31T07:24:16.124Z,102660.06
2018-12-31T07:29:20.435Z,102663.00
2018-12-31T07:34:24.681Z,102663.31
2018-12-31T07:39:29.180Z,102673.20
2018-12-31T07:44:33.513Z,102688.02
2018-12-31T07:49:38.192Z,102686.89
2018-12-31T07:54:44.160Z,102696.97
2018-12-31T07:59:48.349Z,102703.60
2018-12-31T08:05:09.965Z,102700.52
2018-12-31T08:10:31.971Z,102706.50
2018-12-31T08:15:36.095Z,102696.22
2018-12-31T08:20:40.208Z,102698.43
2018-12-31T08:26:02.158Z,102701.32
2018-12-31T08:31:24.507Z,102705.53
2018-12-31T08:36:28.553Z,102703.75
2018-12-31T08:41:50.489Z,102706.38
2018-12-31T08:46:54.562Z,102719.47
2018-12-31T08:51:58.659Z,102715.41
2018-12-31T08:57:02.782Z,102712.68
2018-12-31T09:02:06.849Z,102710.03
2018-12-31T09:07:10.880Z,102709.39
2018-12-31T09:12:14.995Z,102711.59
2018-12-31T09:17:19.042Z,102720.05
2018-12-31T09:22:23.170Z,102714.08
2018-12-31T09:27:44.786Z,102716.83
2018-12-31T09:32:48.890Z,102715.77
2018-12-31T09:37:53.020Z,102706.37
2018-12-31T09:42:57.098Z,102712.36
2018-12-31T09:48:01.169Z,102715.48
2018-12-31T09:53:23.180Z,102709.59
2018-12-31T09:58:46.449Z,102710.20
2018-12-31T10:03:50.489Z,102705.11
2018-12-31T10:08:54.577Z,102706.61
2018-12-31T10:13:58.639Z,102704.94
2018-12-31T10:19:02.744Z,102689.20
2018-12-31T10:24:06.819Z,102686.83
2018-12-31T10:29:10.850Z,102682.72
2018-12-31T10:34:14.961Z,102696.77
2018-12-31T10:39:19.006Z,102693.00
2018-12-31T10:44:24.131Z,102697.02
2018-12-31T10:49:28.165Z,102695.27
2018-12-31T10:54:32.221Z,102697.28
2018-12-31T10:59:36.372Z,102690.87
2018-12-31T11:04:40.733Z,102680.52
2018-12-31T11:09:45.277Z,102678.08
2018-12-31T11:14:49.472Z,102656.96
2018-12-31T11:19:53.637Z,102655.54
2018-12-31T11:24:57.742Z,102650.13
2018-12-31T11:30:01.816Z,102652.31
2018-12-31T11:35:06.438Z,102658.76
2018-12-31T11:40:10.551Z,102658.41
2018-12-31T11:45:14.632Z,102649.64
2018-12-31T11:50:19.705Z,102647.61
2018-12-31T11:55:23.775Z,102645.39
2018-12-31T12:00:27.866Z,102641.65
2018-12-31T12:05:31.924Z,102632.69
2018-12-31T12:10:36.087Z,102632.79
2018-12-31T12:15:40.263Z,102643.90
2018-12-31T12:20:44.389Z,102630.66
2018-12-31T12:25:48.398Z,102622.38
2018-12-31T12:30:52.462Z,102613.36
2018-12-31T12:35:56.611Z,102608.41
2018-12-31T12:41:01.021Z,102605.79
2018-12-31T12:46:05.187Z,102608.00
2018-12-31T12:51:09.487Z,102602.52
2018-12-31T12:56:13.545Z,102599.21
2018-12-31T13:01:17.627Z,102584.82
2018-12-31T13:06:22.099Z,102601.86
2018-12-31T13:11:26.246Z,102598.41
2018-12-31T13:16:30.297Z,102604.28
2018-12-31T13:21:34.401Z,102595.24
2018-12-31T13:26:43.629Z,102604.41
2018-12-31T13:31:44.252Z,102618.21
2018-12-31T13:36:48.404Z,102628.34
2018-12-31T13:41:52.487Z,102622.00
2018-12-31T13:46:56.561Z,102638.48
2018-12-31T13:52:00.882Z,102617.94
2018-12-31T13:57:04.975Z,102624.52
2018-12-31T14:02:09.190Z,102612.08
2018-12-31T14:07:13.227Z,102608.86
2018-12-31T14:12:17.501Z,102611.62
2018-12-31T14:17:21.620Z,102623.86
2018-12-31T14:22:25.893Z,102616.71
2018-12-31T14:27:30.061Z,102619.56
2018-12-31T14:32:34.508Z,102612.17
2018-12-31T14:37:38.607Z,102616.56
2018-12-31T14:42:43.096Z,102616.78
2018-12-31T14:47:47.113Z,102615.61
2018-12-31T14:52:51.454Z,102617.25
2018-12-31T14:57:55.524Z,102620.37
2018-12-31T15:03:00.082Z,102618.02
2018-12-31T15:08:04.810Z,102630.31
2018-12-31T15:13:09.262Z,102623.58
2018-12-31T15:18:13.460Z,102615.55
2018-12-31T15:23:17.591Z,102611.77
2018-12-31T15:28:21.791Z,102609.22
2018-12-31T15:33:25.902Z,102613.60
2018-12-31T15:38:30.265Z,102610.11
2018-12-31T15:43:34.361Z,102604.88
2018-12-31T15:48:38.533Z,102604.41
2018-12-31T15:53:43.214Z,102610.77
2018-12-31T15:58:47.874Z,102607.84
2018-12-31T16:03:52.014Z,102599.08
2018-12-31T16:08:56.061Z,102601.92
2018-12-31T16:14:00.135Z,102591.48
2018-12-31T16:19:04.249Z,102584.27
2018-12-31T16:24:11.467Z,102580.07
2018-12-31T16:29:30.916Z,102577.32
2018-12-31T16:34:52.537Z,102573.16
2018-12-31T16:40:14.455Z,102568.87
2018-12-31T16:45:33.400Z,102567.75
2018-12-31T16:50:55.383Z,102564.88
2018-12-31T16:55:59.659Z,102552.72
2018-12-31T17:01:03.680Z,102550.27
2018-12-31T17:06:08.029Z,102550.83
2018-12-31T17:11:12.275Z,102556.63
2018-12-31T17:16:16.365Z,102562.16
2018-12-31T17:21:20.440Z,102561.09
2018-12-31T17:26:36.202Z,102561.09
2018-12-31T17:31:40.238Z,102550.58
2018-12-31T17:36:44.596Z,102545.73
2018-12-31T17:41:48.748Z,102546.59
2018-12-31T17:46:53.027Z,102539.08
2018-12-31T17:51:57.090Z,102536.33
2018-12-31T17:57:01.162Z,102536.33
2018-12-31T18:02:25.240Z,102537.45
2018-12-31T18:07:29.316Z,102531.25
2018-12-31T18:12:33.376Z,102514.34
2018-12-31T18:17:55.038Z,102506.31
2018-12-31T18:22:59.099Z,102502.45
2018-12-31T18:28:03.168Z,102510.86
2018-12-31T18:33:07.291Z,102512.64
2018-12-31T18:38:29.022Z,102511.70
2018-12-31T18:43:51.061Z,102521.19
2018-12-31T18:48:55.142Z,102525.05
2018-12-31T18:53:59.436Z,102529.20
2018-12-31T18:59:03.496Z,102521.27
2018-12-31T19:04:07.563Z,102517.31
2018-12-31T19:09:29.376Z,102508.20
2018-12-31T19:14:51.289Z,102508.97
2018-12-31T19:19:55.477Z,102508.97
2018-12-31T19:24:59.626Z,102519.31
2018-12-31T19:30:03.728Z,102521.05
2018-12-31T19:35:07.732Z,102522.48
2018-12-31T19:40:29.640Z,102518.84
2018-12-31T19:45:33.755Z,102511.09
2018-12-31T19:50:37.852Z,102501.02
2018-12-31T19:55:42.258Z,102500.98
2018-12-31T20:00:46.254Z,102494.38
2018-12-31T20:05:50.312Z,102495.59
2018-12-31T20:10:54.374Z,102497.73
2018-12-31T20:15:58.884Z,102481.81
2018-12-31T20:21:02.974Z,102482.63
2018-12-31T20:26:07.002Z,102482.86
2018-12-31T20:31:11.152Z,102472.56
2018-12-31T20:36:15.185Z,102469.84
2018-12-31T20:41:19.521Z,102459.66
2018-12-31T20:46:23.588Z,102448.29
2018-12-31T20:51:27.597Z,102460.81
2018-12-31T20:56:31.737Z,102456.81
2018-12-31T21:01:35.817Z,102454.77
2018-12-31T21:06:39.932Z,102454.20
2018-12-31T21:11:44.156Z,102443.48
2018-12-31T21:16:48.225Z,102445.21
2018-12-31T21:21:52.543Z,102439.30
2018-12-31T21:26:56.633Z,102429.67
2018-12-31T21:32:00.680Z,102423.59
2018-12-31T21:37:04.731Z,102410.73
2018-12-31T21:42:08.818Z,102405.44
2018-12-31T21:47:12.823Z,102395.96
2018-12-31T21:52:23.410Z,102386.66
2018-12-31T21:57:28.465Z,102379.24
2018-12-31T22:02:33.924Z,102373.33
2018-12-31T22:07:40.758Z,102373.19
2018-12-31T22:12:45.621Z,102363.86
2018-12-31T22:17:50.648Z,102351.75
2018-12-31T22:22:56.785Z,102339.17
2018-12-31T22:28:01.939Z,102334.66
2018-12-31T22:33:06.034Z,102335.23
2018-12-31T22:38:10.774Z,102322.17
2018-12-31T22:43:15.635Z,102326.41
2018-12-31T22:48:21.674Z,102315.53
2018-12-31T22:53:26.985Z,102321.31
2018-12-31T22:58:32.293Z,102325.69
2018-12-31T23:03:36.634Z,102312.73
2018-12-31T23:08:40.761Z,102304.97
2018-12-31T23:13:45.140Z,102304.63
2018-12-31T23:18:49.702Z,102300.38
2018-12-31T23:23:53.803Z,102285.47
2018-12-31T23:28:58.277Z,102283.43
2018-12-31T23:34:02.839Z,102273.63
2018-12-31T23:39:07.343Z,102260.29
2018-12-31T23:44:11.386Z,102241.97
2018-12-31T23:49:15.644Z,102247.32
2018-12-31T23:54:19.725Z,102237.02
2018-12-31T23:59:23.766Z,102235.91
